HTDA

Julius Nyerere International Airport

Dar es Salaam, Tanzania
METAR HTDA 170700Z 35010KT 9999 BKN018 30/25 Q1013 NOSIG
Observed Flight Rules
Dec-17 @ 07:00 UTC (an hour ago) Marginal Visual Flight Rules
Wind Visibility Clouds
350° at 10 knots 10,000+ meters
  • Broken at 1,800' AGL
Temperatures Readings
Current 30°C / 86°F
Dewpoint 25°C / 77°F
Humidity 75%
Altimeter 29.91" Hg
Pressure 1013 hPa
Elevation 55
METAR HTDA 170700Z 35010KT 9999 BKN018 30/25 Q1013 NOSIG
Observed Flight Rules
Dec-17 @ 07:00 UTC
(an hour ago)
MVFR
Wind Visibility
350° at 10 knots 10,000+ meters
Clouds
  • Broken at 1,800' AGL
Temperature Dewpoint
30°C / 86°F 25°C / 77°F
Humidity Altimeter Pressure
75% 29.91" Hg 1013 hPa